Flight Briefing for CPX719

Departure Arrival
Miami International Airport (KMIA)
Click to view FAA NOTAMS
Juan Santamar?a International Airport (MROC)
Click to view FAA NOTAMS
Departure Time Arrival Time
N/A N/A
Aircraft Distance
B767-300BDSF 976nm
Departure METAR Arrival METAR
KMIA 232153Z 06014G22KT 10SM SCT030 BKN037 29/21 A3007 RMK AO2 SLP181 T02890206 MROC 232200Z 33005KT 9999 2000SW -RA BCFG FEW002 SCT030 BKN080 22/21 A2995 NOSIG
Suggested Route
MNATE2 MNATE Y442 FUNDI UZ465 ALVEK UM328 SELEK UZ403 PIRAS BARRA1P


View recent IFR Routes data
Notes



Charts and Procedures

Charts for KMIA
No chart available
Charts for MROC
No chart available

Windy.com Weather Map